Time;durP1;ratioP1;P1;durP2;ratioP2;P2;SDS_P1;SDS_P2;PMS_P1;PMS_P2;Temp;Humidity;BMP_temperature;BMP_pressure;BME280_temperature;BME280_humidity;BME280_pressure;Samples;Min_cycle;Max_cycle;Signal;HPM_P1;HPM_P2
2021/10/19 00:02:41;;;;;;;27.73;11.38;;;;;;;;;;10395096;28;20100;-68
2021/10/19 00:07:46;;;;;;;31.67;12.67;;;;;;;;;;10392337;28;20080;-68
2021/10/19 00:12:48;;;;;;;;;;;;;;;;;;10385374;28;20111;-69
2021/10/19 00:17:51;;;;;;;31.02;10.90;;;;;;;;;;10388065;28;19967;-68
2021/10/19 00:22:56;;;;;;;29.23;11.70;;;;;;;;;;10389515;28;20041;-67
2021/10/19 00:27:58;;;;;;;;;;;;;;;;;;10382499;28;20066;-69
2021/10/19 00:33:01;;;;;;;28.75;11.98;;;;;;;;;;10385717;28;19935;-69
2021/10/19 00:38:05;;;;;;;28.73;11.05;;;;;;;;;;10389553;28;20045;-68
2021/10/19 00:43:08;;;;;;;25.42;10.18;;;;;;;;;;10385129;28;20560;-68
2021/10/19 00:48:15;;;;;;;24.38;10.27;;;;;;;;;;10382551;28;20139;-68
2021/10/19 00:53:19;;;;;;;23.30;8.52;;;;;;;;;;10392207;28;20050;-68
2021/10/19 00:58:23;;;;;;;19.55;7.82;;;;;;;;;;10391198;28;20033;-69
2021/10/19 01:03:26;;;;;;;19.65;7.97;;;;;;;;;;10386362;28;20071;-69
2021/10/19 01:08:31;;;;;;;8.50;2.40;;;;;;;;;;10387988;28;20520;-68
2021/10/19 01:13:38;;;;;;;16.30;6.45;;;;;;;;;;10385496;28;20467;-68
2021/10/19 01:19:01;;;;;;;15.07;6.47;;;;;;;;;;10384037;28;20042;-69
2021/10/19 01:24:25;;;;;;;22.52;8.00;;;;;;;;;;10391207;28;20510;-70
2021/10/19 01:29:47;;;;;;;13.13;6.65;;;;;;;;;;10389847;28;20041;-68
2021/10/19 01:34:54;;;;;;;22.55;8.70;;;;;;;;;;10395475;28;20045;-69
2021/10/19 01:39:58;;;;;;;22.27;8.90;;;;;;;;;;10392608;28;20502;-70
2021/10/19 01:45:02;;;;;;;22.85;9.18;;;;;;;;;;10385173;28;20049;-69
2021/10/19 01:50:05;;;;;;;20.40;8.73;;;;;;;;;;10386351;28;20091;-68
2021/10/19 01:55:10;;;;;;;22.70;9.50;;;;;;;;;;10381796;28;20033;-69
2021/10/19 02:00:13;;;;;;;20.50;8.77;;;;;;;;;;10387945;28;20375;-71
2021/10/19 02:05:15;;;;;;;21.08;8.32;;;;;;;;;;10388472;28;20041;-69
2021/10/19 02:10:20;;;;;;;21.33;8.05;;;;;;;;;;10392099;28;20517;-68
2021/10/19 02:15:26;;;;;;;;;;;;;;;;;;10392159;28;20046;-70
2021/10/19 02:20:29;;;;;;;14.67;6.53;;;;;;;;;;10391782;28;19952;-69
2021/10/19 02:25:33;;;;;;;17.47;7.40;;;;;;;;;;10387933;28;20046;-70
2021/10/19 02:30:36;;;;;;;;;;;;;;;;;;10401190;28;20076;-71
2021/10/19 02:35:39;;;;;;;17.73;7.10;;;;;;;;;;10392860;28;19924;-70
2021/10/19 02:40:43;;;;;;;16.83;7.10;;;;;;;;;;10397588;28;20042;-68
2021/10/19 02:45:46;;;;;;;18.33;7.43;;;;;;;;;;10393218;28;20083;-70
2021/10/19 02:50:48;;;;;;;16.70;7.45;;;;;;;;;;10394639;28;20541;-68
2021/10/19 02:55:53;;;;;;;17.83;7.13;;;;;;;;;;10397303;28;20585;-66
2021/10/19 03:00:55;;;;;;;;;;;;;;;;;;10395687;28;20033;-67
2021/10/19 03:05:58;;;;;;;14.87;6.70;;;;;;;;;;10393704;28;19922;-68
2021/10/19 03:11:03;;;;;;;14.47;6.60;;;;;;;;;;10398110;28;20123;-68
2021/10/19 03:16:10;;;;;;;14.90;6.93;;;;;;;;;;10391325;28;20057;-69
2021/10/19 03:21:13;;;;;;;17.20;6.83;;;;;;;;;;10392737;28;20111;-69
2021/10/19 03:26:17;;;;;;;18.17;6.90;;;;;;;;;;10386906;28;20064;-68
2021/10/19 03:31:19;;;;;;;;;;;;;;;;;;10391599;28;20087;-67
2021/10/19 03:36:22;;;;;;;15.65;6.28;;;;;;;;;;10388306;28;19921;-69
2021/10/19 03:41:26;;;;;;;13.17;5.07;;;;;;;;;;10393838;28;20045;-71
2021/10/19 03:46:29;;;;;;;;;;;;;;;;;;10389528;28;20038;-69
2021/10/19 03:51:32;;;;;;;11.73;5.43;;;;;;;;;;10397337;28;19928;-72
2021/10/19 03:56:36;;;;;;;11.30;4.90;;;;;;;;;;10393063;28;20052;-68
2021/10/19 04:01:38;;;;;;;;;;;;;;;;;;10395984;28;20454;-69
2021/10/19 04:06:41;;;;;;;13.23;5.70;;;;;;;;;;10390488;28;20032;-68
2021/10/19 04:11:45;;;;;;;17.55;6.50;;;;;;;;;;10388442;28;20053;-69
2021/10/19 04:16:51;;;;;;;12.67;5.80;;;;;;;;;;10390473;28;20485;-69
2021/10/19 04:21:54;;;;;;;12.97;6.30;;;;;;;;;;10387213;28;20574;-70
2021/10/19 04:26:58;;;;;;;14.27;5.93;;;;;;;;;;10394353;28;20072;-70
2021/10/19 04:32:00;;;;;;;;;;;;;;;;;;10395659;28;20121;-70
2021/10/19 04:37:03;;;;;;;9.10;3.97;;;;;;;;;;10383632;28;19921;-71
2021/10/19 04:42:07;;;;;;;15.57;5.10;;;;;;;;;;10395909;28;20053;-70
2021/10/19 04:47:10;;;;;;;11.10;5.00;;;;;;;;;;10399932;28;20063;-70
2021/10/19 04:52:13;;;;;;;10.23;4.50;;;;;;;;;;10391988;28;20501;-70
2021/10/19 04:57:17;;;;;;;11.40;4.93;;;;;;;;;;10390196;28;20041;-70
2021/10/19 05:02:20;;;;;;;;;;;;;;;;;;10389256;28;20081;-70
2021/10/19 05:07:23;;;;;;;8.67;4.10;;;;;;;;;;10397617;28;19921;-70
2021/10/19 05:12:27;;;;;;;8.50;3.93;;;;;;;;;;10395048;28;20079;-71
2021/10/19 05:17:30;;;;;;;;;;;;;;;;;;10392015;28;20095;-70
2021/10/19 05:22:33;;;;;;;10.77;4.53;;;;;;;;;;10397318;28;19932;-67
2021/10/19 05:27:37;;;;;;;9.48;3.85;;;;;;;;;;10386012;28;20052;-70
2021/10/19 05:32:39;;;;;;;;;;;;;;;;;;10398505;28;20080;-69
2021/10/19 05:37:42;;;;;;;10.30;3.97;;;;;;;;;;10390394;28;19921;-68
2021/10/19 05:42:46;;;;;;;7.20;3.90;;;;;;;;;;10390328;28;20065;-69
2021/10/19 05:47:49;;;;;;;;;;;;;;;;;;10396266;28;20064;-71
2021/10/19 05:52:52;;;;;;;9.27;3.60;;;;;;;;;;10397970;28;19925;-69
2021/10/19 05:57:56;;;;;;;5.03;2.67;;;;;;;;;;10395667;28;20044;-69
2021/10/19 06:03:20;;;;;;;6.65;2.30;;;;;;;;;;10395850;28;20456;-70
2021/10/19 06:08:24;;;;;;;2.42;1.30;;;;;;;;;;10401222;28;20107;-70
2021/10/19 06:13:28;;;;;;;6.90;1.55;;;;;;;;;;10397056;28;20037;-69
2021/10/19 06:18:31;;;;;;;3.95;1.70;;;;;;;;;;10396199;28;20045;-69
2021/10/19 06:23:34;;;;;;;2.95;0.93;;;;;;;;;;10391090;28;20095;-70
2021/10/19 06:28:38;;;;;;;1.92;0.85;;;;;;;;;;10388096;28;20470;-70
2021/10/19 06:33:41;;;;;;;;;;;;;;;;;;10394129;28;20676;-69
2021/10/19 06:38:43;;;;;;;2.08;1.08;;;;;;;;;;10391554;28;19975;-70
2021/10/19 06:43:48;;;;;;;6.13;2.45;;;;;;;;;;10396007;28;20056;-70
2021/10/19 06:49:12;;;;;;;3.63;1.77;;;;;;;;;;10391919;28;20048;-69
2021/10/19 06:54:15;;;;;;;3.92;1.95;;;;;;;;;;10388890;28;20047;-68
2021/10/19 06:59:19;;;;;;;4.20;2.15;;;;;;;;;;10388668;28;20072;-69
2021/10/19 07:04:22;;;;;;;7.32;2.42;;;;;;;;;;10383522;28;20119;-66
2021/10/19 07:09:25;;;;;;;4.28;1.85;;;;;;;;;;10396987;28;20104;-69
2021/10/19 07:14:29;;;;;;;2.60;1.95;;;;;;;;;;10397526;28;20072;-70
2021/10/19 07:19:32;;;;;;;8.18;2.55;;;;;;;;;;10399590;28;20093;-70
2021/10/19 07:24:35;;;;;;;7.50;3.05;;;;;;;;;;10394479;28;20049;-69
2021/10/19 07:29:39;;;;;;;5.85;2.03;;;;;;;;;;10392515;28;20403;-70
2021/10/19 07:34:42;;;;;;;3.03;1.42;;;;;;;;;;10391728;28;20042;-67
2021/10/19 07:39:45;;;;;;;5.35;2.28;;;;;;;;;;10398963;28;20044;-69
2021/10/19 07:44:49;;;;;;;4.63;2.00;;;;;;;;;;10391572;28;20108;-70
2021/10/19 07:49:52;;;;;;;7.90;2.65;;;;;;;;;;10391338;28;20076;-70
2021/10/19 07:54:55;;;;;;;4.80;2.15;;;;;;;;;;10398379;28;20115;-71
2021/10/19 08:00:00;;;;;;;13.10;2.73;;;;;;;;;;10395164;28;20113;-69
2021/10/19 08:05:03;;;;;;;5.43;2.20;;;;;;;;;;10395394;28;20300;-68
2021/10/19 08:10:06;;;;;;;6.03;2.50;;;;;;;;;;10395761;28;20041;-70
2021/10/19 08:15:11;;;;;;;7.63;2.20;;;;;;;;;;10385552;28;20060;-69
2021/10/19 08:20:14;;;;;;;6.38;2.35;;;;;;;;;;10397866;28;20033;-67
2021/10/19 08:25:17;;;;;;;8.10;2.20;;;;;;;;;;10394143;28;20433;-69
2021/10/19 08:30:22;;;;;;;5.50;2.10;;;;;;;;;;10392068;28;20510;-70
2021/10/19 08:35:24;;;;;;;7.88;2.70;;;;;;;;;;10388715;28;20037;-67
2021/10/19 08:40:27;;;;;;;7.22;2.65;;;;;;;;;;10392036;28;20041;-68
2021/10/19 08:45:32;;;;;;;9.27;3.20;;;;;;;;;;10388026;28;20048;-68
2021/10/19 08:50:34;;;;;;;6.28;2.40;;;;;;;;;;10391306;28;20096;-69
2021/10/19 08:55:37;;;;;;;5.82;2.42;;;;;;;;;;10386974;28;20149;-69
2021/10/19 09:00:41;;;;;;;6.65;2.63;;;;;;;;;;10390113;28;20474;-68
2021/10/19 09:05:46;;;;;;;9.90;3.05;;;;;;;;;;10385841;28;20049;-69
2021/10/19 09:10:49;;;;;;;6.63;2.63;;;;;;;;;;10394432;28;20199;-69
2021/10/19 09:15:53;;;;;;;11.07;3.08;;;;;;;;;;10387316;28;20048;-69
2021/10/19 09:20:56;;;;;;;10.13;2.80;;;;;;;;;;10387263;28;20085;-69
2021/10/19 09:26:01;;;;;;;10.00;2.60;;;;;;;;;;10397279;28;20066;-67
2021/10/19 09:31:06;;;;;;;7.30;2.65;;;;;;;;;;10397627;28;20061;-69
2021/10/19 09:36:09;;;;;;;7.13;2.80;;;;;;;;;;10401746;28;20417;-69
2021/10/19 09:41:12;;;;;;;7.90;2.70;;;;;;;;;;10398497;28;20044;-68
2021/10/19 09:46:16;;;;;;;7.17;3.10;;;;;;;;;;10394121;28;20041;-69
2021/10/19 09:51:20;;;;;;;5.88;2.70;;;;;;;;;;10393749;28;20109;-69
2021/10/19 09:56:23;;;;;;;5.68;2.35;;;;;;;;;;10392788;28;20054;-69
2021/10/19 10:01:27;;;;;;;11.60;2.80;;;;;;;;;;10395285;28;20092;-69
2021/10/19 10:06:31;;;;;;;6.60;2.92;;;;;;;;;;10397373;28;20077;-70
2021/10/19 10:11:33;;;;;;;6.85;3.10;;;;;;;;;;10397940;28;20049;-70
2021/10/19 10:16:45;;;;;;;10.20;2.80;;;;;;;;;;10394499;28;20053;-68
2021/10/19 10:21:49;;;;;;;7.07;3.03;;;;;;;;;;10389451;28;20103;-68
2021/10/19 10:27:02;;;;;;;10.15;3.47;;;;;;;;;;10389936;28;20417;-69
2021/10/19 10:32:06;;;;;;;7.00;2.42;;;;;;;;;;10392742;28;20068;-69
2021/10/19 10:37:11;;;;;;;10.57;2.72;;;;;;;;;;10396846;28;20041;-69
2021/10/19 10:42:15;;;;;;;8.25;2.65;;;;;;;;;;10393120;28;20033;-69
2021/10/19 10:47:22;;;;;;;9.40;2.58;;;;;;;;;;10393889;28;20033;-72
2021/10/19 10:52:25;;;;;;;8.43;3.25;;;;;;;;;;10394486;28;20042;-70
2021/10/19 10:57:28;;;;;;;7.33;2.97;;;;;;;;;;10394162;28;20079;-69
2021/10/19 11:02:32;;;;;;;5.57;2.40;;;;;;;;;;10389648;28;20057;-71
2021/10/19 11:07:36;;;;;;;6.63;2.78;;;;;;;;;;10389309;28;20413;-70
2021/10/19 11:12:39;;;;;;;8.10;2.63;;;;;;;;;;10347735;28;1162702;-68
2021/10/19 11:17:48;;;;;;;7.97;2.53;;;;;;;;;;10386969;28;20049;-68
2021/10/19 11:22:51;;;;;;;4.97;2.10;;;;;;;;;;10390328;28;20490;-69
2021/10/19 11:27:54;;;;;;;5.78;1.88;;;;;;;;;;10391822;28;20119;-69
2021/10/19 11:32:58;;;;;;;5.40;2.38;;;;;;;;;;10392324;28;20042;-70
2021/10/19 11:38:01;;;;;;;3.88;2.17;;;;;;;;;;10392589;28;20107;-67
2021/10/19 11:43:04;;;;;;;4.20;2.30;;;;;;;;;;10393087;28;20049;-69
2021/10/19 11:48:10;;;;;;;7.00;2.67;;;;;;;;;;10384876;28;20069;-67
2021/10/19 11:53:13;;;;;;;6.90;2.40;;;;;;;;;;10388626;28;20037;-67
2021/10/19 11:58:16;;;;;;;4.45;2.20;;;;;;;;;;10390214;28;20068;-68
2021/10/19 12:03:20;;;;;;;8.07;4.30;;;;;;;;;;10395929;28;20061;-70
2021/10/19 12:08:28;;;;;;;5.95;2.08;;;;;;;;;;10392487;28;20315;-69
2021/10/19 12:13:31;;;;;;;6.63;2.45;;;;;;;;;;10397231;28;20037;-69
2021/10/19 12:18:43;;;;;;;6.72;2.22;;;;;;;;;;10395083;28;20270;-69
2021/10/19 12:23:49;;;;;;;6.90;2.75;;;;;;;;;;10388638;28;20033;-69
2021/10/19 12:28:53;;;;;;;3.92;1.85;;;;;;;;;;10388052;28;20060;-69
2021/10/19 12:33:59;;;;;;;3.67;1.60;;;;;;;;;;10386608;28;20037;-69
2021/10/19 12:39:14;;;;;;;3.90;1.77;;;;;;;;;;10391200;28;20348;-69
2021/10/19 12:44:17;;;;;;;7.47;2.20;;;;;;;;;;10389275;28;20072;-69
2021/10/19 12:49:22;;;;;;;3.97;1.73;;;;;;;;;;10388800;28;20061;-69
2021/10/19 12:54:24;;;;;;;4.15;2.10;;;;;;;;;;10382649;28;20132;-70
2021/10/19 12:59:27;;;;;;;6.17;2.10;;;;;;;;;;10390265;28;20399;-68
2021/10/19 13:04:32;;;;;;;2.95;1.67;;;;;;;;;;10385957;28;20141;-70
2021/10/19 13:09:34;;;;;;;2.55;1.27;;;;;;;;;;10392496;28;20137;-69
2021/10/19 13:14:37;;;;;;;3.73;1.90;;;;;;;;;;10393607;28;20084;-70
2021/10/19 13:19:42;;;;;;;6.72;2.35;;;;;;;;;;10384119;28;20033;-71
2021/10/19 13:24:45;;;;;;;4.70;2.30;;;;;;;;;;10387229;28;20045;-70
2021/10/19 13:29:47;;;;;;;5.70;2.50;;;;;;;;;;10394321;28;20045;-68
2021/10/19 13:34:52;;;;;;;5.22;2.10;;;;;;;;;;10381878;28;20041;-67
2021/10/19 13:39:55;;;;;;;6.13;2.42;;;;;;;;;;10393269;28;20040;-68
2021/10/19 13:44:58;;;;;;;7.88;2.28;;;;;;;;;;10388116;28;20057;-70
2021/10/19 13:50:02;;;;;;;3.88;2.25;;;;;;;;;;10389708;28;20328;-69
2021/10/19 13:55:05;;;;;;;9.00;2.53;;;;;;;;;;10383002;28;20049;-68
2021/10/19 14:00:09;;;;;;;3.83;2.00;;;;;;;;;;10382507;28;20066;-70
2021/10/19 14:05:11;;;;;;;;;;;;;;;;;;10387933;28;20114;-69
2021/10/19 14:10:17;;;;;;;4.45;2.38;;;;;;;;;;10390201;28;19929;-71
2021/10/19 14:15:19;;;;;;;5.38;2.28;;;;;;;;;;10384525;28;20041;-66
2021/10/19 14:20:22;;;;;;;5.82;2.53;;;;;;;;;;10394637;28;20187;-70
2021/10/19 14:25:27;;;;;;;6.95;2.45;;;;;;;;;;10397645;28;20057;-70
2021/10/19 14:30:32;;;;;;;4.15;2.10;;;;;;;;;;10396849;28;20092;-69
2021/10/19 14:35:35;;;;;;;5.63;2.50;;;;;;;;;;10401186;28;20076;-68
2021/10/19 14:40:39;;;;;;;5.60;2.05;;;;;;;;;;10400238;28;20045;-68
2021/10/19 14:45:42;;;;;;;6.15;2.30;;;;;;;;;;10397111;28;20461;-67
2021/10/19 14:50:45;;;;;;;8.00;3.20;;;;;;;;;;10390136;28;20117;-69
2021/10/19 14:55:49;;;;;;;4.23;2.30;;;;;;;;;;10398662;28;20120;-69
2021/10/19 15:00:52;;;;;;;5.57;2.88;;;;;;;;;;10389938;28;20046;-70
2021/10/19 15:05:56;;;;;;;5.38;2.20;;;;;;;;;;10394101;28;20061;-70
2021/10/19 15:11:00;;;;;;;6.25;2.20;;;;;;;;;;10394576;28;20217;-69
2021/10/19 15:16:03;;;;;;;5.78;2.92;;;;;;;;;;10394076;28;20434;-69
2021/10/19 15:21:06;;;;;;;5.63;2.35;;;;;;;;;;10393358;28;20152;-70
2021/10/19 15:26:10;;;;;;;6.30;2.70;;;;;;;;;;10390147;28;20136;-70
2021/10/19 15:31:13;;;;;;;9.25;2.92;;;;;;;;;;10396584;28;20048;-69
2021/10/19 15:36:16;;;;;;;7.10;2.40;;;;;;;;;;10387278;28;20045;-69
2021/10/19 15:41:21;;;;;;;5.28;2.70;;;;;;;;;;10389907;28;20045;-69
2021/10/19 15:46:24;;;;;;;7.57;2.85;;;;;;;;;;10389003;28;20137;-69
2021/10/19 15:51:27;;;;;;;6.47;2.30;;;;;;;;;;10398051;28;20050;-68
2021/10/19 15:56:31;;;;;;;3.45;1.80;;;;;;;;;;10397808;28;20029;-70
2021/10/19 16:01:43;;;;;;;6.95;2.88;;;;;;;;;;10395155;28;20100;-70
2021/10/19 16:06:46;;;;;;;5.72;2.28;;;;;;;;;;10391697;28;20042;-70
2021/10/19 16:11:50;;;;;;;5.20;2.40;;;;;;;;;;10386394;28;20125;-69
2021/10/19 16:16:53;;;;;;;6.60;2.42;;;;;;;;;;10390822;28;20041;-69
2021/10/19 16:21:56;;;;;;;6.10;2.57;;;;;;;;;;10393914;28;20045;-69
2021/10/19 16:27:02;;;;;;;4.47;2.10;;;;;;;;;;10390506;28;20494;-69
2021/10/19 16:32:05;;;;;;;4.55;1.90;;;;;;;;;;10385559;28;20037;-70
2021/10/19 16:37:08;;;;;;;3.42;1.77;;;;;;;;;;10384057;28;20398;-68
2021/10/19 16:42:12;;;;;;;4.53;1.83;;;;;;;;;;10391408;28;20095;-69
2021/10/19 16:47:15;;;;;;;0.95;0.75;;;;;;;;;;10395610;28;20300;-68
2021/10/19 16:52:18;;;;;;;1.33;0.90;;;;;;;;;;10386409;28;20073;-69
2021/10/19 16:57:22;;;;;;;2.53;1.20;;;;;;;;;;10396439;28;20069;-68
2021/10/19 17:02:25;;;;;;;2.55;1.08;;;;;;;;;;10391496;28;20510;-71
2021/10/19 17:07:28;;;;;;;1.87;1.37;;;;;;;;;;10387897;28;20208;-69
2021/10/19 17:12:32;;;;;;;5.00;1.83;;;;;;;;;;10388857;28;20823;-70
2021/10/19 17:17:35;;;;;;;4.57;1.50;;;;;;;;;;10398164;28;20049;-69
2021/10/19 17:22:38;;;;;;;5.50;1.20;;;;;;;;;;10391747;28;20096;-68
2021/10/19 17:27:42;;;;;;;3.83;1.50;;;;;;;;;;10386863;28;20045;-68
2021/10/19 17:32:45;;;;;;;2.40;1.30;;;;;;;;;;10383837;28;20037;-68
2021/10/19 17:37:51;;;;;;;3.05;1.38;;;;;;;;;;10396908;28;20072;-67
2021/10/19 17:42:55;;;;;;;4.53;1.58;;;;;;;;;;10394862;28;20034;-69
2021/10/19 17:47:58;;;;;;;3.65;1.10;;;;;;;;;;10401390;28;20050;-70
2021/10/19 17:53:01;;;;;;;2.77;1.30;;;;;;;;;;10393935;28;20080;-70
2021/10/19 17:58:05;;;;;;;4.23;1.70;;;;;;;;;;10393628;28;20128;-71
2021/10/19 18:03:08;;;;;;;4.88;2.00;;;;;;;;;;10393128;28;20108;-68
2021/10/19 18:08:14;;;;;;;4.33;1.23;;;;;;;;;;10386760;28;20056;-69
2021/10/19 18:13:18;;;;;;;5.65;1.67;;;;;;;;;;10395467;28;20773;-68
2021/10/19 18:18:24;;;;;;;4.55;1.48;;;;;;;;;;10400720;28;20042;-68
2021/10/19 18:23:44;;;;;;;3.25;1.50;;;;;;;;;;10392882;28;20045;-69
2021/10/19 18:28:49;;;;;;;3.60;1.40;;;;;;;;;;10393941;28;20045;-69
2021/10/19 18:33:54;;;;;;;3.13;1.23;;;;;;;;;;10399509;28;20045;-68
2021/10/19 18:38:56;;;;;;;1.80;1.20;;;;;;;;;;10394389;28;20247;-69
2021/10/19 18:44:01;;;;;;;4.53;1.60;;;;;;;;;;10397902;28;20042;-69
2021/10/19 18:49:04;;;;;;;2.58;1.20;;;;;;;;;;10392274;28;20368;-69
2021/10/19 18:54:06;;;;;;;2.17;1.50;;;;;;;;;;10397918;28;20076;-69
2021/10/19 18:59:13;;;;;;;3.47;1.23;;;;;;;;;;10393306;28;20518;-70
2021/10/19 19:04:21;;;;;;;3.13;1.58;;;;;;;;;;10392414;28;20030;-69
2021/10/19 19:09:24;;;;;;;4.13;1.73;;;;;;;;;;10391315;28;20490;-69
2021/10/19 19:14:28;;;;;;;3.30;1.55;;;;;;;;;;10389284;28;20049;-69
2021/10/19 19:19:31;;;;;;;5.95;2.58;;;;;;;;;;10389598;28;20412;-70
2021/10/19 19:24:34;;;;;;;4.20;1.80;;;;;;;;;;10392514;28;20422;-69
2021/10/19 19:29:38;;;;;;;5.70;1.97;;;;;;;;;;10394185;28;20068;-68
2021/10/19 19:35:02;;;;;;;4.72;1.75;;;;;;;;;;10385477;28;20053;-68
2021/10/19 19:40:26;;;;;;;3.25;1.70;;;;;;;;;;10388864;28;20050;-69
2021/10/19 19:45:31;;;;;;;2.72;1.50;;;;;;;;;;10390391;28;20481;-70
2021/10/19 19:50:34;;;;;;;3.65;1.50;;;;;;;;;;10386753;28;20065;-71
2021/10/19 19:55:37;;;;;;;3.45;1.52;;;;;;;;;;10387356;28;20041;-70
2021/10/19 20:00:42;;;;;;;4.93;1.52;;;;;;;;;;10390218;28;20111;-70
2021/10/19 20:05:45;;;;;;;0.95;0.65;;;;;;;;;;10387662;28;20398;-68
2021/10/19 20:10:48;;;;;;;3.27;1.80;;;;;;;;;;10391862;28;20450;-70
2021/10/19 20:15:52;;;;;;;6.75;2.05;;;;;;;;;;10385515;28;20570;-69
2021/10/19 20:20:55;;;;;;;3.80;1.40;;;;;;;;;;10391616;28;20116;-69
2021/10/19 20:25:58;;;;;;;2.27;1.23;;;;;;;;;;10395362;28;20116;-71
2021/10/19 20:31:02;;;;;;;2.40;1.17;;;;;;;;;;10373940;28;20088;-70
2021/10/19 20:36:05;;;;;;;3.72;1.80;;;;;;;;;;10386793;28;20072;-67
2021/10/19 20:41:08;;;;;;;3.47;1.83;;;;;;;;;;10392408;28;20069;-68
2021/10/19 20:46:12;;;;;;;2.70;1.50;;;;;;;;;;10389850;28;20048;-68
2021/10/19 20:51:15;;;;;;;3.05;1.33;;;;;;;;;;10390010;28;20049;-67
2021/10/19 20:56:18;;;;;;;2.90;1.20;;;;;;;;;;10385760;28;20068;-68
2021/10/19 21:01:22;;;;;;;2.22;1.27;;;;;;;;;;10393284;28;20050;-69
2021/10/19 21:06:25;;;;;;;3.20;1.70;;;;;;;;;;10378428;28;20555;-68
2021/10/19 21:11:28;;;;;;;3.23;1.60;;;;;;;;;;10393011;28;20095;-68
2021/10/19 21:16:33;;;;;;;2.13;1.15;;;;;;;;;;10388827;28;20041;-69
2021/10/19 21:21:36;;;;;;;5.57;1.58;;;;;;;;;;10400390;28;20065;-68
2021/10/19 21:26:38;;;;;;;3.13;1.70;;;;;;;;;;10397074;28;20129;-68
2021/10/19 21:31:43;;;;;;;3.60;1.70;;;;;;;;;;10399756;28;20048;-69
2021/10/19 21:36:46;;;;;;;1.95;0.95;;;;;;;;;;10399365;28;20038;-69
2021/10/19 21:41:49;;;;;;;;;;;;;;;;;;10402465;28;20048;-69
2021/10/19 21:46:53;;;;;;;4.13;1.60;;;;;;;;;;10394932;28;19925;-69
2021/10/19 21:51:56;;;;;;;4.18;1.65;;;;;;;;;;10397335;28;20045;-69
2021/10/19 21:56:59;;;;;;;5.10;1.98;;;;;;;;;;10404230;28;20124;-70
2021/10/19 22:02:04;;;;;;;1.33;0.67;;;;;;;;;;10392441;28;20045;-67
2021/10/19 22:07:08;;;;;;;2.72;1.50;;;;;;;;;;10391646;28;20410;-70
2021/10/19 22:12:11;;;;;;;3.20;1.45;;;;;;;;;;10392835;28;20045;-70
2021/10/19 22:17:15;;;;;;;3.07;1.60;;;;;;;;;;10397238;28;20383;-68
2021/10/19 22:22:17;;;;;;;9.70;2.05;;;;;;;;;;10399841;28;20359;-70
2021/10/19 22:27:20;;;;;;;4.72;1.88;;;;;;;;;;10394058;28;20489;-68
2021/10/19 22:32:25;;;;;;;2.70;1.20;;;;;;;;;;10397975;28;20108;-68
2021/10/19 22:37:33;;;;;;;2.63;1.50;;;;;;;;;;10395784;28;20478;-70
2021/10/19 22:42:36;;;;;;;1.65;0.85;;;;;;;;;;10403490;28;20048;-66
2021/10/19 22:47:40;;;;;;;2.40;1.50;;;;;;;;;;10396134;28;20041;-68
2021/10/19 22:52:44;;;;;;;1.13;0.57;;;;;;;;;;10391064;28;20049;-68
2021/10/19 22:57:47;;;;;;;4.28;1.30;;;;;;;;;;10398004;28;20415;-69
2021/10/19 23:02:51;;;;;;;2.35;1.35;;;;;;;;;;10389564;28;20073;-70
2021/10/19 23:07:54;;;;;;;2.47;1.38;;;;;;;;;;10391195;28;20124;-68
2021/10/19 23:12:57;;;;;;;2.08;1.20;;;;;;;;;;10391268;28;20512;-69
2021/10/19 23:18:01;;;;;;;7.38;1.13;;;;;;;;;;10396196;28;20046;-69
2021/10/19 23:23:08;;;;;;;3.17;1.50;;;;;;;;;;10394168;28;20069;-69
2021/10/19 23:28:11;;;;;;;3.00;1.30;;;;;;;;;;10397113;28;20095;-68
2021/10/19 23:33:15;;;;;;;4.83;1.43;;;;;;;;;;10388434;28;20604;-69
2021/10/19 23:38:18;;;;;;;3.72;1.58;;;;;;;;;;10388806;28;20117;-68
2021/10/19 23:43:21;;;;;;;3.43;1.63;;;;;;;;;;10394485;28;20045;-68
2021/10/19 23:48:26;;;;;;;2.85;1.48;;;;;;;;;;10398003;28;20837;-68
2021/10/19 23:53:29;;;;;;;3.38;1.35;;;;;;;;;;10393992;28;20667;-68
2021/10/19 23:58:32;;;;;;;3.23;1.27;;;;;;;;;;10392859;28;20113;-68
